Main page
METAR-TAF:

METAR-TAF

Airports :

Curaçao International Airport

Curaçao, Netherlands Antilles

latitude: 12-12N, longitude: 068-58W, elevation: 9 m

Current weather observation

The report was made 46 minutes ago, at 22:00 UTC
Wind 11 kt from the East
Temperature 31°C
Humidity 75%
Pressure 1008 hPa
Visibility 10 km or more
Few clouds at a height of 2000 ft

METAR: TNCC 182200Z 10011KT 9999 FEW020 31/26 Q1008 NOSIG

Time: 18:46 (22:46 UTC)

Forecast

The report was made 5 hours and 31 minutes ago, at 17:15 UTC
Forecast valid from 18 at 18 UTC to 19 at 18 UTC
Wind 13 kt from the East/Southeast
Visibility 10 km or more
Few clouds at a height of 2500 ft
Probability 30% :
Temporary
from 19 at 08 UTC to 19 at 14 UTC
Visibility: 4000 m
Broken clouds at a height of 1400 ft
rain showers,

TAF: TNCC 181715Z 1818/1918 11013KT 9999 FEW025 PROB30 TEMPO 1908/1914 4000 SHRA BKN014

Weather observations and forecasts of more than 4000 airports (METAR and TAF reports).

The available stations are represented by yellow and red dots on the map.

Hover mouse over dot to see the name of the station.

Then click to see weather observations and forecasts.

To change the map : click on the green buttons with a black cross to zoom in, on the green button with a dash to zoom out, or on the green arrows for adjacent maps.


METAR-TAF: